createdAt,value
2022-09-23T00:02:37.214Z,100
2022-09-23T00:17:53.119Z,100
2022-09-23T00:33:11.085Z,100
2022-09-23T00:48:28.057Z,100
2022-09-23T01:03:45.037Z,99.5
2022-09-23T01:19:01.015Z,100
2022-09-23T01:19:42.903Z,100
2022-09-23T01:34:19.025Z,100
2022-09-23T01:49:35.007Z,100
2022-09-23T02:04:50.946Z,100
2022-09-23T02:20:06.959Z,100
2022-09-23T02:35:23.891Z,100
2022-09-23T02:50:40.904Z,100
2022-09-23T03:05:57.850Z,100
2022-09-23T03:21:13.859Z,100
2022-09-23T03:36:30.794Z,100
2022-09-23T03:51:46.805Z,100
2022-09-23T04:07:02.780Z,100
2022-09-23T04:22:18.765Z,100
2022-09-23T04:37:35.709Z,100
2022-09-23T04:52:52.722Z,100
2022-09-23T05:08:09.698Z,100
2022-09-23T05:23:25.684Z,100
2022-09-23T05:38:42.622Z,100
2022-09-23T05:53:58.633Z,100
2022-09-23T06:09:14.608Z,100
2022-09-23T06:24:31.869Z,100
2022-09-23T06:39:49.555Z,95.5
2022-09-23T06:55:06.498Z,93.5
2022-09-23T07:10:22.502Z,86.5
2022-09-23T07:25:38.441Z,81
2022-09-23T07:40:55.454Z,77
2022-09-23T07:56:11.390Z,75.5
2022-09-23T08:11:27.389Z,75
2022-09-23T08:26:44.326Z,67
2022-09-23T08:42:02.342Z,64.5
2022-09-23T08:57:19.267Z,65.5
2022-09-23T09:12:35.270Z,60
2022-09-23T09:27:51.221Z,57
2022-09-23T09:43:10.210Z,55.5
2022-09-23T09:58:27.096Z,54.5
2022-09-23T10:13:44.088Z,51.5
2022-09-23T10:29:00.087Z,51.5
2022-09-23T10:44:17.023Z,50
2022-09-23T10:59:33.009Z,48.5
2022-09-23T11:14:48.940Z,45.5
2022-09-23T11:30:04.938Z,45.5
2022-09-23T11:45:21.885Z,44
2022-09-23T12:00:39.392Z,43.5
2022-09-23T12:15:55.826Z,42.5
2022-09-23T12:31:11.903Z,43.5
2022-09-23T12:46:28.759Z,42.5
2022-09-23T13:01:44.977Z,42.5
2022-09-23T13:17:00.757Z,42
2022-09-23T13:32:17.661Z,42.5
2022-09-23T13:47:35.639Z,45.5
2022-09-23T14:02:51.607Z,47
2022-09-23T14:18:07.580Z,49.5
2022-09-23T14:33:24.547Z,48.5
2022-09-23T14:48:42.519Z,48.5
2022-09-23T15:03:59.492Z,44
2022-09-23T15:19:15.453Z,45
2022-09-23T15:34:32.419Z,46
2022-09-23T15:49:48.426Z,48
2022-09-23T15:50:34.282Z,48
2022-09-23T16:05:05.370Z,48.5
2022-09-23T16:20:22.376Z,49
2022-09-23T16:35:40.297Z,52
2022-09-23T16:50:57.302Z,51.5
2022-09-23T17:06:13.236Z,51.5
2022-09-23T17:21:29.246Z,53
2022-09-23T17:36:46.205Z,54.5
2022-09-23T17:52:02.189Z,53
2022-09-23T18:07:18.152Z,56
2022-09-23T18:22:35.132Z,58.5
2022-09-23T18:37:53.089Z,60
2022-09-23T18:53:10.059Z,63.5
2022-09-23T19:08:26.024Z,64
2022-09-23T19:23:42.003Z,66.5
2022-09-23T19:38:58.969Z,68.5
2022-09-23T19:54:14.938Z,70
2022-09-23T20:09:30.899Z,70.5
2022-09-23T20:24:47.847Z,71.5
2022-09-23T20:40:06.915Z,71.5
2022-09-23T20:55:22.793Z,72
2022-09-23T21:10:38.803Z,72.5
2022-09-23T21:25:54.725Z,73
2022-09-23T21:41:11.777Z,74
2022-09-23T21:56:28.665Z,74
2022-09-23T22:11:45.669Z,74.5
2022-09-23T22:27:01.609Z,75
2022-09-23T22:42:18.610Z,75.5
2022-09-23T22:57:34.543Z,76.5
2022-09-23T23:12:50.551Z,81
2022-09-23T23:28:06.491Z,92
2022-09-23T23:43:23.489Z,99
2022-09-23T23:58:40.429Z,100
